Resaro Solo Sailor — FGE5657 — position and weather

sailwx.info

Track history (hours):
 
Tides and Currents Weather Stations Pressure Air Temp Water Temp Dewpoint Dewpoint Depression Visibility Wind Speed Wind Dir Waves Ship Positions

Resaro Solo Sailor

Last reported at 2017-Aug-23 11:42 UTC. Time now 2017-Sep-25 09:49 UTC.
Position N 47°44' W 003°22'.
Warning: this ship's position is 32 days out of date.

Length 7 m.

Type: Sailing vessel. MMSI: 227653840.

Date/timePositionNaut miles runAvg speedWind from/ knotsBaromVisibWave heightAir tempDewpointWater temp
2017-Aug-23 11:42N 47°44' W 003°22'0 0.0
2017-Aug-23 11:30N 47°44' W 003°22'0 0.0
2017-Aug-22 18:20N 47°44' W 003°22'0 0.0
2017-Aug-22 17:53N 47°44' W 003°22'0 0.0
2017-Aug-22 17:29N 47°44' W 003°22'  
2017-Aug-18 08:48N 47°40' W 003°24'1 4.8
2017-Aug-18 08:31N 47°38' W 003°23'3 6.0
2017-Aug-18 08:00N 47°41' W 003°22'2 0.0
2017-Aug-16 13:13N 47°40' W 003°23'1 3.5
2017-Aug-16 13:01N 47°40' W 003°22'  
Track history (hours):
 
Tides and Currents Weather Stations Pressure Air Temp Water Temp Dewpoint Dewpoint Depression Visibility Wind Speed Wind Dir Waves Ship Positions

Resaro Solo Sailor

Last reported at 2017-Aug-23 11:42 UTC. Time now 2017-Sep-25 09:49 UTC.
Position N 47°44' W 003°22'.
Warning: this ship's position is 32 days out of date.

Length 7 m.

Type: Sailing vessel. MMSI: 227653840.

Date/timePositionNaut miles runAvg speedWind from/ knotsBaromVisibWave heightAir tempDewpointWater temp
2017-Aug-23 11:42N 47°44' W 003°22'0 0.0
2017-Aug-23 11:30N 47°44' W 003°22'0 0.0
2017-Aug-22 18:20N 47°44' W 003°22'0 0.0
2017-Aug-22 17:53N 47°44' W 003°22'0 0.0
2017-Aug-22 17:29N 47°44' W 003°22'  
2017-Aug-18 08:48N 47°40' W 003°24'1 4.8
2017-Aug-18 08:31N 47°38' W 003°23'3 6.0
2017-Aug-18 08:00N 47°41' W 003°22'2 0.0
2017-Aug-16 13:13N 47°40' W 003°23'1 3.5
2017-Aug-16 13:01N 47°40' W 003°22'  

Dump ship's entire track history